createdAt,value
2018-09-28T00:00:28.757Z,11.64
2018-09-28T00:01:29.375Z,11.70
2018-09-28T00:02:28.806Z,11.59
2018-09-28T00:03:28.635Z,11.61
2018-09-28T00:04:29.367Z,11.66
2018-09-28T00:05:28.613Z,11.63
2018-09-28T00:06:28.539Z,11.59
2018-09-28T00:07:28.516Z,11.64
2018-09-28T00:08:28.494Z,11.70
2018-09-28T00:09:29.369Z,11.57
2018-09-28T00:10:28.932Z,11.53
2018-09-28T00:11:29.369Z,11.68
2018-09-28T00:12:28.382Z,11.64
2018-09-28T00:13:28.338Z,11.60
2018-09-28T00:14:28.872Z,11.61
2018-09-28T00:15:28.324Z,11.64
2018-09-28T00:16:28.298Z,11.57
2018-09-28T00:17:28.882Z,11.57
2018-09-28T00:18:28.872Z,11.66
2018-09-28T00:19:28.869Z,11.59
2018-09-28T00:20:28.430Z,11.64
2018-09-28T00:21:28.424Z,11.61
2018-09-28T00:22:28.870Z,11.67
2018-09-28T00:23:28.056Z,11.78
2018-09-28T00:24:28.872Z,11.71
2018-09-28T00:25:28.426Z,11.75
2018-09-28T00:26:27.974Z,11.82
2018-09-28T00:27:28.420Z,11.86
2018-09-28T00:28:28.870Z,11.86
2018-09-28T00:29:28.873Z,11.78
2018-09-28T00:30:27.853Z,11.84
2018-09-28T00:31:27.925Z,11.70
2018-09-28T00:32:28.375Z,11.66
2018-09-28T00:33:27.777Z,11.71
2018-09-28T00:34:27.789Z,11.71
2018-09-28T00:35:28.374Z,11.63
2018-09-28T00:36:27.942Z,11.63
2018-09-28T00:37:28.377Z,11.63
2018-09-28T00:38:27.626Z,11.66
2018-09-28T00:39:28.378Z,11.63
2018-09-28T00:40:27.567Z,11.71
2018-09-28T00:41:27.925Z,11.64
2018-09-28T00:42:27.922Z,11.63
2018-09-28T00:43:28.375Z,11.64
2018-09-28T00:44:28.374Z,11.67
2018-09-28T00:45:28.283Z,11.71
2018-09-28T00:46:28.377Z,11.70
2018-09-28T00:47:27.415Z,11.61
2018-09-28T00:48:27.878Z,11.66
2018-09-28T00:49:27.874Z,11.64
2018-09-28T00:50:27.276Z,11.63
2018-09-28T00:51:27.879Z,11.67
2018-09-28T00:52:27.291Z,11.64
2018-09-28T00:53:27.191Z,11.64
2018-09-28T00:54:27.891Z,11.63
2018-09-28T00:55:27.133Z,11.70
2018-09-28T00:56:27.876Z,11.66
2018-09-28T00:57:27.114Z,11.76
2018-09-28T00:58:27.089Z,11.71
2018-09-28T00:59:27.877Z,11.76
2018-09-28T01:00:26.986Z,11.73
2018-09-28T01:01:27.005Z,11.66
2018-09-28T01:02:26.933Z,11.73
2018-09-28T01:03:27.879Z,11.70
2018-09-28T01:04:26.909Z,11.81
2018-09-28T01:05:27.391Z,11.75
2018-09-28T01:06:27.377Z,11.81
2018-09-28T01:07:27.382Z,11.85
2018-09-28T01:08:26.805Z,11.79
2018-09-28T01:09:26.783Z,11.78
2018-09-28T01:10:26.701Z,11.79
2018-09-28T01:11:27.379Z,11.79
2018-09-28T01:12:27.381Z,11.84
2018-09-28T01:13:26.658Z,11.79
2018-09-28T01:14:26.583Z,11.81
2018-09-28T01:15:26.602Z,11.79
2018-09-28T01:16:26.526Z,11.82
2018-09-28T01:17:27.395Z,11.81
2018-09-28T01:18:26.949Z,11.82
2018-09-28T01:19:27.390Z,11.86
2018-09-28T01:20:27.388Z,11.67
2018-09-28T01:21:26.384Z,11.75
2018-09-28T01:22:26.887Z,11.78
2018-09-28T01:23:26.442Z,11.71
2018-09-28T01:24:26.885Z,11.68
2018-09-28T01:25:26.275Z,11.67
2018-09-28T01:26:26.238Z,11.66
2018-09-28T01:27:26.893Z,11.60
2018-09-28T01:28:26.224Z,11.59
2018-09-28T01:29:26.885Z,11.56
2018-09-28T01:30:26.133Z,11.61
2018-09-28T01:31:26.882Z,11.57
2018-09-28T01:32:26.887Z,11.51
2018-09-28T01:33:26.436Z,11.52
2018-09-28T01:34:26.014Z,11.51
2018-09-28T01:35:25.978Z,11.49
2018-09-28T01:36:25.971Z,11.41
2018-09-28T01:37:26.885Z,11.45
2018-09-28T01:38:26.452Z,11.31
2018-09-28T01:39:25.867Z,11.30
2018-09-28T01:40:25.834Z,11.30
2018-09-28T01:41:26.386Z,11.33
2018-09-28T01:42:26.383Z,11.27
2018-09-28T01:43:25.939Z,11.28
2018-09-28T01:44:26.384Z,11.31
2018-09-28T01:45:26.386Z,11.21
2018-09-28T01:46:25.660Z,11.33
2018-09-28T01:47:25.633Z,11.31
2018-09-28T01:48:25.944Z,11.33
2018-09-28T01:49:26.389Z,11.41
2018-09-28T01:50:26.416Z,11.39
2018-09-28T01:51:26.388Z,11.52
2018-09-28T01:52:26.391Z,11.53
2018-09-28T01:53:25.949Z,11.49
2018-09-28T01:54:25.428Z,11.51
2018-09-28T01:55:26.408Z,11.53
2018-09-28T01:56:25.388Z,11.57
2018-09-28T01:57:25.890Z,11.49
2018-09-28T01:58:25.360Z,11.49
2018-09-28T01:59:25.888Z,11.56
2018-09-28T02:00:25.261Z,11.51
2018-09-28T02:01:25.267Z,11.49
2018-09-28T02:02:25.886Z,11.56
2018-09-28T02:03:25.168Z,11.51
2018-09-28T02:04:25.441Z,11.52
2018-09-28T02:05:25.107Z,11.53
2018-09-28T02:06:25.123Z,11.52
2018-09-28T02:07:25.888Z,11.52
2018-09-28T02:08:25.886Z,11.53
2018-09-28T02:09:24.991Z,11.53
2018-09-28T02:10:25.888Z,11.49
2018-09-28T02:11:25.438Z,11.48
2018-09-28T02:12:24.940Z,11.52
2018-09-28T02:13:24.876Z,11.49
2018-09-28T02:14:24.944Z,11.51
2018-09-28T02:15:24.818Z,11.51
2018-09-28T02:16:25.390Z,11.42
2018-09-28T02:17:24.891Z,11.45
2018-09-28T02:18:25.391Z,11.48
2018-09-28T02:19:24.725Z,11.49
2018-09-28T02:20:24.676Z,11.49
2018-09-28T02:21:25.392Z,11.63
2018-09-28T02:22:24.691Z,11.63
2018-09-28T02:23:24.591Z,11.64
2018-09-28T02:24:24.556Z,11.68
2018-09-28T02:25:24.946Z,11.75
2018-09-28T02:26:25.391Z,11.68
2018-09-28T02:27:24.471Z,11.79
2018-09-28T02:28:25.403Z,11.71
2018-09-28T02:29:24.422Z,11.81
2018-09-28T02:30:24.434Z,11.81
2018-09-28T02:31:24.353Z,11.84
2018-09-28T02:32:24.894Z,11.84
2018-09-28T02:33:24.296Z,11.78
2018-09-28T02:34:24.267Z,11.78
2018-09-28T02:35:24.281Z,11.79
2018-09-28T02:36:24.213Z,11.89
2018-09-28T02:37:24.894Z,12.00
2018-09-28T02:38:24.898Z,12.00
2018-09-28T02:39:24.892Z,11.95
2018-09-28T02:40:24.455Z,12.01
2018-09-28T02:41:24.896Z,11.85
2018-09-28T02:42:24.040Z,11.98
2018-09-28T02:43:24.449Z,12.03
2018-09-28T02:44:23.976Z,11.98
2018-09-28T02:45:23.950Z,12.00
2018-09-28T02:46:23.920Z,11.98
2018-09-28T02:47:24.399Z,12.00
2018-09-28T02:48:23.913Z,12.00
2018-09-28T02:49:24.402Z,12.08
2018-09-28T02:50:23.803Z,12.05
2018-09-28T02:51:24.396Z,12.00
2018-09-28T02:52:23.796Z,12.00
2018-09-28T02:53:23.720Z,11.95
2018-09-28T02:54:23.726Z,12.00
2018-09-28T02:55:23.699Z,12.04
2018-09-28T02:56:24.396Z,12.03
2018-09-28T02:57:24.396Z,11.89
2018-09-28T02:58:23.574Z,11.89
2018-09-28T02:59:23.952Z,11.97
2018-09-28T03:00:23.516Z,11.79
2018-09-28T03:01:24.396Z,11.86
2018-09-28T03:02:23.502Z,11.82
2018-09-28T03:03:23.430Z,11.84
2018-09-28T03:04:23.402Z,11.79
2018-09-28T03:05:23.897Z,11.81
2018-09-28T03:06:23.475Z,11.76
2018-09-28T03:07:23.362Z,11.71
2018-09-28T03:08:23.284Z,11.76
2018-09-28T03:09:23.260Z,11.73
2018-09-28T03:10:23.227Z,11.71
2018-09-28T03:11:23.447Z,11.68
2018-09-28T03:12:23.211Z,11.82
2018-09-28T03:13:23.903Z,11.79
2018-09-28T03:14:23.119Z,11.76
2018-09-28T03:15:23.088Z,11.78
2018-09-28T03:16:23.899Z,11.73
2018-09-28T03:17:23.070Z,11.82
2018-09-28T03:18:23.901Z,11.73
2018-09-28T03:19:23.900Z,11.75
2018-09-28T03:20:23.898Z,11.68
2018-09-28T03:21:22.910Z,11.73
2018-09-28T03:22:22.918Z,11.63
2018-09-28T03:23:23.403Z,11.67
2018-09-28T03:24:22.826Z,11.66
2018-09-28T03:25:23.405Z,11.70
2018-09-28T03:26:23.401Z,11.66
2018-09-28T03:27:22.782Z,11.70
2018-09-28T03:28:22.954Z,11.68
2018-09-28T03:29:23.400Z,11.63
2018-09-28T03:30:22.647Z,11.60
2018-09-28T03:31:22.618Z,11.73
2018-09-28T03:32:22.595Z,11.63
2018-09-28T03:33:22.608Z,11.66
2018-09-28T03:34:22.534Z,11.71
2018-09-28T03:35:22.503Z,11.68
2018-09-28T03:36:22.475Z,11.70
2018-09-28T03:37:22.445Z,11.63
2018-09-28T03:38:22.957Z,11.61
2018-09-28T03:39:22.465Z,11.70
2018-09-28T03:40:22.908Z,11.73
2018-09-28T03:41:22.331Z,11.66
2018-09-28T03:42:22.906Z,11.76
2018-09-28T03:43:22.910Z,11.68
2018-09-28T03:44:22.460Z,11.71
2018-09-28T03:45:22.214Z,11.78
2018-09-28T03:46:22.901Z,11.63
2018-09-28T03:47:22.158Z,11.71
2018-09-28T03:48:22.913Z,11.71
2018-09-28T03:49:22.206Z,11.75
2018-09-28T03:50:22.069Z,11.71
2018-09-28T03:51:22.043Z,11.76
2018-09-28T03:52:22.007Z,11.70
2018-09-28T03:53:21.982Z,11.78
2018-09-28T03:54:22.009Z,11.79
2018-09-28T03:55:21.923Z,11.88
2018-09-28T03:56:22.425Z,11.82
2018-09-28T03:57:22.426Z,11.78
2018-09-28T03:58:21.836Z,11.81
2018-09-28T03:59:21.869Z,11.82
2018-09-28T04:00:21.779Z,11.82
2018-09-28T04:01:22.406Z,11.78
2018-09-28T04:02:21.963Z,11.81
2018-09-28T04:03:22.406Z,11.85
2018-09-28T04:04:21.681Z,11.82
2018-09-28T04:05:21.962Z,11.75
2018-09-28T04:06:21.602Z,11.81
2018-09-28T04:07:22.410Z,11.78
2018-09-28T04:08:22.406Z,11.79
2018-09-28T04:09:21.516Z,11.70
2018-09-28T04:10:21.540Z,11.64
2018-09-28T04:11:22.408Z,11.68
2018-09-28T04:12:21.427Z,11.67
2018-09-28T04:13:21.911Z,11.71
2018-09-28T04:14:21.370Z,11.68
2018-09-28T04:15:21.396Z,11.70
2018-09-28T04:16:21.317Z,11.71
2018-09-28T04:17:21.908Z,11.68
2018-09-28T04:18:21.459Z,11.68
2018-09-28T04:19:21.907Z,11.67
2018-09-28T04:20:21.911Z,11.61
2018-09-28T04:21:21.222Z,11.68
2018-09-28T04:22:21.910Z,11.64
2018-09-28T04:23:21.138Z,11.67
2018-09-28T04:24:21.100Z,11.70
2018-09-28T04:25:21.050Z,11.64
2018-09-28T04:26:21.469Z,11.66
2018-09-28T04:27:21.004Z,11.68
2018-09-28T04:28:21.911Z,11.70
2018-09-28T04:29:20.934Z,11.66
2018-09-28T04:30:20.909Z,11.70
2018-09-28T04:31:20.965Z,11.68
2018-09-28T04:32:20.850Z,11.67
2018-09-28T04:33:20.821Z,11.66
2018-09-28T04:34:20.790Z,11.82
2018-09-28T04:35:21.418Z,11.75
2018-09-28T04:36:22.207Z,11.81
2018-09-28T04:37:20.702Z,11.71
2018-09-28T04:38:20.674Z,11.78
2018-09-28T04:39:20.968Z,11.68
2018-09-28T04:40:20.659Z,11.78
2018-09-28T04:41:20.585Z,11.84
2018-09-28T04:42:20.556Z,11.81
2018-09-28T04:43:20.529Z,11.82
2018-09-28T04:44:20.540Z,11.81
2018-09-28T04:45:20.572Z,11.82
2018-09-28T04:46:20.967Z,11.81
2018-09-28T04:47:20.410Z,11.84
2018-09-28T04:48:20.382Z,11.84
2018-09-28T04:49:20.356Z,11.88
2018-09-28T04:50:20.916Z,11.89
2018-09-28T04:51:20.336Z,11.88
2018-09-28T04:52:20.915Z,11.95
2018-09-28T04:53:20.240Z,11.94
2018-09-28T04:54:20.212Z,11.97
2018-09-28T04:55:20.177Z,11.88
2018-09-28T04:56:20.202Z,11.76
2018-09-28T04:57:20.118Z,11.81
2018-09-28T04:58:20.093Z,11.76
2018-09-28T04:59:20.060Z,11.82
2018-09-28T05:00:20.032Z,11.76
2018-09-28T05:01:20.059Z,11.79
2018-09-28T05:02:21.823Z,11.86
2018-09-28T05:03:19.947Z,11.85
2018-09-28T05:04:19.915Z,11.86
2018-09-28T05:05:19.890Z,11.89
2018-09-28T05:06:19.900Z,11.95
2018-09-28T05:07:19.875Z,12.03
2018-09-28T05:08:20.421Z,12.00
2018-09-28T05:09:19.779Z,12.04
2018-09-28T05:10:19.746Z,11.98
2018-09-28T05:11:19.716Z,12.04
2018-09-28T05:12:19.746Z,12.13
2018-09-28T05:13:19.658Z,12.15
2018-09-28T05:14:19.630Z,12.13
2018-09-28T05:15:19.600Z,12.22
2018-09-28T05:16:19.581Z,12.22
2018-09-28T05:17:19.999Z,12.29
2018-09-28T05:18:19.531Z,12.29
2018-09-28T05:19:20.425Z,12.40
2018-09-28T05:20:19.459Z,12.33
2018-09-28T05:21:19.429Z,12.41
2018-09-28T05:22:19.442Z,12.40
2018-09-28T05:23:19.373Z,12.40
2018-09-28T05:24:19.344Z,12.48
2018-09-28T05:25:19.340Z,12.47
2018-09-28T05:26:19.285Z,12.59
2018-09-28T05:27:19.305Z,12.69
2018-09-28T05:28:19.229Z,12.63
2018-09-28T05:29:19.204Z,12.53
2018-09-28T05:30:19.171Z,12.70
2018-09-28T05:31:19.301Z,12.74
2018-09-28T05:32:19.306Z,12.69
2018-09-28T05:33:19.135Z,12.76
2018-09-28T05:34:19.955Z,12.88
2018-09-28T05:35:19.921Z,12.84
2018-09-28T05:36:19.067Z,12.84
2018-09-28T05:37:19.541Z,12.78
2018-09-28T05:38:19.925Z,12.88
2018-09-28T05:39:18.975Z,12.94
2018-09-28T05:40:18.888Z,12.84
2018-09-28T05:41:18.865Z,12.91
2018-09-28T05:42:18.830Z,12.89
2018-09-28T05:43:18.802Z,13.06
2018-09-28T05:44:18.819Z,13.06
2018-09-28T05:45:18.791Z,12.96
2018-09-28T05:46:18.781Z,13.01
2018-09-28T05:47:18.689Z,13.03
2018-09-28T05:48:18.668Z,13.03
2018-09-28T05:49:18.673Z,13.03
2018-09-28T05:50:18.979Z,13.03
2018-09-28T05:51:18.631Z,13.13
2018-09-28T05:52:18.551Z,13.10
2018-09-28T05:53:19.435Z,13.10
2018-09-28T05:54:18.536Z,13.14
2018-09-28T05:55:19.425Z,13.11
2018-09-28T05:56:18.437Z,13.17
2018-09-28T05:57:18.411Z,13.16
2018-09-28T05:58:18.384Z,13.27
2018-09-28T05:59:18.494Z,13.24
2018-09-28T06:00:18.355Z,13.20
2018-09-28T06:01:18.924Z,13.27
2018-09-28T06:02:18.267Z,13.24
2018-09-28T06:03:18.241Z,13.32
2018-09-28T06:04:18.256Z,13.28
2018-09-28T06:05:18.191Z,13.28
2018-09-28T06:06:18.155Z,13.36
2018-09-28T06:07:18.140Z,13.25
2018-09-28T06:08:18.169Z,13.27
2018-09-28T06:09:18.126Z,13.21
2018-09-28T06:10:18.048Z,13.28
2018-09-28T06:11:18.022Z,13.28
2018-09-28T06:12:17.988Z,13.32
2018-09-28T06:13:17.961Z,13.25
2018-09-28T06:14:17.985Z,13.25
2018-09-28T06:15:17.905Z,13.28
2018-09-28T06:16:17.925Z,13.27
2018-09-28T06:17:17.850Z,13.25
2018-09-28T06:18:17.818Z,13.36
2018-09-28T06:19:17.838Z,13.28
2018-09-28T06:20:17.768Z,13.44
2018-09-28T06:21:17.779Z,13.47
2018-09-28T06:22:17.710Z,13.47
2018-09-28T06:23:17.685Z,13.39
2018-09-28T06:24:17.710Z,13.45
2018-09-28T06:25:17.623Z,13.47
2018-09-28T06:26:17.641Z,13.44
2018-09-28T06:27:17.569Z,13.57
2018-09-28T06:28:17.541Z,13.54
2018-09-28T06:29:17.514Z,13.62
2018-09-28T06:30:17.541Z,13.66
2018-09-28T06:31:17.560Z,13.72
2018-09-28T06:32:17.429Z,13.75
2018-09-28T06:33:17.405Z,13.79
2018-09-28T06:34:17.937Z,13.86
2018-09-28T06:35:17.346Z,13.78
2018-09-28T06:36:17.389Z,13.90
2018-09-28T06:37:17.934Z,13.93
2018-09-28T06:38:17.932Z,13.93
2018-09-28T06:39:17.232Z,13.91
2018-09-28T06:40:17.206Z,13.87
2018-09-28T06:41:17.993Z,13.95
2018-09-28T06:42:17.216Z,13.97
2018-09-28T06:43:17.125Z,14.05
2018-09-28T06:44:17.099Z,13.99
2018-09-28T06:45:17.067Z,14.09
2018-09-28T06:46:17.050Z,14.11
2018-09-28T06:47:17.056Z,14.19
2018-09-28T06:48:17.064Z,14.15
2018-09-28T06:49:16.958Z,14.19
2018-09-28T06:50:16.935Z,14.26
2018-09-28T06:51:16.928Z,14.31
2018-09-28T06:52:16.937Z,14.36
2018-09-28T06:53:16.848Z,14.44
2018-09-28T06:54:16.894Z,14.39
2018-09-28T06:55:16.792Z,14.49
2018-09-28T06:56:16.804Z,14.53
2018-09-28T06:57:16.792Z,14.53
2018-09-28T06:58:16.776Z,14.59
2018-09-28T06:59:17.440Z,14.64
2018-09-28T07:00:16.820Z,14.63
2018-09-28T07:01:16.627Z,14.64
2018-09-28T07:02:16.645Z,14.64
2018-09-28T07:03:16.596Z,14.67
2018-09-28T07:04:16.544Z,14.71
2018-09-28T07:05:16.561Z,14.74
2018-09-28T07:06:17.447Z,14.75
2018-09-28T07:07:16.466Z,14.74
2018-09-28T07:08:16.436Z,14.75
2018-09-28T07:09:16.468Z,14.75
2018-09-28T07:10:16.427Z,14.77
2018-09-28T07:11:16.353Z,14.75
2018-09-28T07:12:16.389Z,14.70
2018-09-28T07:13:16.313Z,14.64
2018-09-28T07:14:16.941Z,14.71
2018-09-28T07:15:16.287Z,14.66
2018-09-28T07:16:16.276Z,14.63
2018-09-28T07:17:16.191Z,14.66
2018-09-28T07:18:16.975Z,14.57
2018-09-28T07:19:16.940Z,14.53
2018-09-28T07:20:16.488Z,14.70
2018-09-28T07:21:16.942Z,14.67
2018-09-28T07:22:16.938Z,14.67
2018-09-28T07:23:16.088Z,14.61
2018-09-28T07:24:16.115Z,14.61
2018-09-28T07:25:16.049Z,14.56
2018-09-28T07:26:15.943Z,14.53
2018-09-28T07:27:15.921Z,14.59
2018-09-28T07:28:15.935Z,14.57
2018-09-28T07:29:15.889Z,14.52
2018-09-28T07:30:15.843Z,14.57
2018-09-28T07:31:15.815Z,14.52
2018-09-28T07:32:15.820Z,14.59
2018-09-28T07:33:15.764Z,14.53
2018-09-28T07:34:15.769Z,14.59
2018-09-28T07:35:15.700Z,14.56
2018-09-28T07:36:16.513Z,14.51
2018-09-28T07:37:16.552Z,14.60
2018-09-28T07:38:15.992Z,14.57
2018-09-28T07:39:16.442Z,14.53
2018-09-28T07:40:15.601Z,14.61
2018-09-28T07:41:15.544Z,14.52
2018-09-28T07:42:15.575Z,14.45
2018-09-28T07:43:15.479Z,14.49
2018-09-28T07:44:15.523Z,14.51
2018-09-28T07:45:15.434Z,14.53
2018-09-28T07:46:15.404Z,14.60
2018-09-28T07:47:15.371Z,14.56
2018-09-28T07:48:15.963Z,14.61
2018-09-28T07:49:15.560Z,14.74
2018-09-28T07:50:15.297Z,14.63
2018-09-28T07:51:15.262Z,14.67
2018-09-28T07:52:15.232Z,14.66
2018-09-28T07:53:15.949Z,14.67
2018-09-28T07:54:15.219Z,14.67
2018-09-28T07:55:15.246Z,14.64
2018-09-28T07:56:15.123Z,14.74
2018-09-28T07:57:15.095Z,14.75
2018-09-28T07:58:15.064Z,14.86
2018-09-28T07:59:15.190Z,14.97
2018-09-28T08:00:15.015Z,14.83
2018-09-28T08:01:14.984Z,14.85
2018-09-28T08:02:14.960Z,14.77
2018-09-28T08:03:15.488Z,14.75
2018-09-28T08:04:14.940Z,14.75
2018-09-28T08:05:14.924Z,14.70
2018-09-28T08:06:14.846Z,14.66
2018-09-28T08:07:14.833Z,14.77
2018-09-28T08:08:15.453Z,14.70
2018-09-28T08:09:14.762Z,14.69
2018-09-28T08:10:14.781Z,14.75
2018-09-28T08:11:14.711Z,14.66
2018-09-28T08:12:14.681Z,14.74
2018-09-28T08:13:14.654Z,14.70
2018-09-28T08:14:14.669Z,14.71
2018-09-28T08:15:14.643Z,14.71
2018-09-28T08:16:14.587Z,14.77
2018-09-28T08:17:14.546Z,14.74
2018-09-28T08:18:14.517Z,14.67
2018-09-28T08:19:14.490Z,14.66
2018-09-28T08:20:14.535Z,14.67
2018-09-28T08:21:14.478Z,14.67
2018-09-28T08:22:14.407Z,14.59
2018-09-28T08:23:14.436Z,14.61
2018-09-28T08:24:14.351Z,14.69
2018-09-28T08:25:14.386Z,14.79
2018-09-28T08:26:14.299Z,14.69
2018-09-28T08:27:14.268Z,14.80
2018-09-28T08:28:14.242Z,14.70
2018-09-28T08:29:14.214Z,14.83
2018-09-28T08:30:14.232Z,14.82
2018-09-28T08:31:14.165Z,14.94
2018-09-28T08:32:14.131Z,14.94
2018-09-28T08:33:14.147Z,14.95
2018-09-28T08:34:14.077Z,14.97
2018-09-28T08:35:14.058Z,15.00
2018-09-28T08:36:14.961Z,15.08
2018-09-28T08:37:13.996Z,15.15
2018-09-28T08:38:14.014Z,15.16
2018-09-28T08:39:13.942Z,15.16
2018-09-28T08:40:13.959Z,15.30
2018-09-28T08:41:13.891Z,15.37
2018-09-28T08:42:13.864Z,15.34
2018-09-28T08:43:13.833Z,15.44
2018-09-28T08:44:16.458Z,15.58
2018-09-28T08:45:13.864Z,15.65
2018-09-28T08:46:13.751Z,15.62
2018-09-28T08:47:14.457Z,15.63
2018-09-28T08:48:13.700Z,15.59
2018-09-28T08:49:14.492Z,15.65
2018-09-28T08:50:13.705Z,15.71
2018-09-28T08:51:13.617Z,15.68
2018-09-28T08:52:13.593Z,15.67
2018-09-28T08:53:14.460Z,15.73
2018-09-28T08:54:13.537Z,15.65
2018-09-28T08:55:13.550Z,15.47
2018-09-28T08:56:13.487Z,15.45
2018-09-28T08:57:13.957Z,15.45
2018-09-28T08:58:13.429Z,15.49
2018-09-28T08:59:13.404Z,15.65
2018-09-28T09:00:13.446Z,15.70
2018-09-28T09:01:13.351Z,15.63
2018-09-28T09:02:13.344Z,15.56
2018-09-28T09:03:13.341Z,15.59
2018-09-28T09:04:13.279Z,15.55
2018-09-28T09:05:13.246Z,15.67
2018-09-28T09:06:13.517Z,15.71
2018-09-28T09:07:13.197Z,15.67
2018-09-28T09:08:13.171Z,15.80
2018-09-28T09:09:13.149Z,15.91
2018-09-28T09:10:13.143Z,15.81
2018-09-28T09:11:13.128Z,15.80
2018-09-28T09:12:13.060Z,15.75
2018-09-28T09:13:13.044Z,15.80
2018-09-28T09:14:13.007Z,15.68
2018-09-28T09:15:13.002Z,15.73
2018-09-28T09:16:13.007Z,15.70
2018-09-28T09:17:12.931Z,15.77
2018-09-28T09:18:13.072Z,15.77
2018-09-28T09:19:13.466Z,15.73
2018-09-28T09:20:12.855Z,15.77
2018-09-28T09:21:12.886Z,15.81
2018-09-28T09:22:12.857Z,15.88
2018-09-28T09:23:12.773Z,15.93
2018-09-28T09:24:12.753Z,15.89
2018-09-28T09:25:12.722Z,15.83
2018-09-28T09:26:12.741Z,15.70
2018-09-28T09:27:12.676Z,15.70
2018-09-28T09:28:13.465Z,15.70
2018-09-28T09:29:12.679Z,15.80
2018-09-28T09:30:12.641Z,15.70
2018-09-28T09:31:12.609Z,15.58
2018-09-28T09:32:12.596Z,15.65
2018-09-28T09:33:13.473Z,15.52
2018-09-28T09:34:12.484Z,15.47
2018-09-28T09:35:12.462Z,15.49
2018-09-28T09:36:12.434Z,15.47
2018-09-28T09:37:12.452Z,15.34
2018-09-28T09:38:12.382Z,15.44
2018-09-28T09:39:12.364Z,15.49
2018-09-28T09:40:12.337Z,15.47
2018-09-28T09:41:12.304Z,15.55
2018-09-28T09:42:12.321Z,15.49
2018-09-28T09:43:12.250Z,15.45
2018-09-28T09:44:12.231Z,15.43
2018-09-28T09:45:12.253Z,15.62
2018-09-28T09:46:12.175Z,15.70
2018-09-28T09:47:12.147Z,15.71
2018-09-28T09:48:12.129Z,15.67
2018-09-28T09:49:12.099Z,15.73
2018-09-28T09:50:12.116Z,15.78
2018-09-28T09:51:12.080Z,15.91
2018-09-28T09:52:12.016Z,15.86
2018-09-28T09:53:12.035Z,15.80
2018-09-28T09:54:11.971Z,15.91
2018-09-28T09:55:11.942Z,15.86
2018-09-28T09:56:11.914Z,15.96
2018-09-28T09:57:11.885Z,15.91
2018-09-28T09:58:11.970Z,16.13
2018-09-28T09:59:11.835Z,16.21
2018-09-28T10:00:11.806Z,16.26
2018-09-28T10:01:11.845Z,16.37
2018-09-28T10:02:11.798Z,16.17
2018-09-28T10:03:11.727Z,15.99
2018-09-28T10:04:11.743Z,15.96
2018-09-28T10:05:11.679Z,16.04
2018-09-28T10:06:11.651Z,16.07
2018-09-28T10:07:12.030Z,16.10
2018-09-28T10:08:12.475Z,16.07
2018-09-28T10:09:11.581Z,15.99
2018-09-28T10:10:11.554Z,15.99
2018-09-28T10:11:11.523Z,16.02
2018-09-28T10:12:11.543Z,16.10
2018-09-28T10:13:11.982Z,16.10
2018-09-28T10:14:11.447Z,16.08
2018-09-28T10:15:11.418Z,16.34
2018-09-28T10:16:11.391Z,16.33
2018-09-28T10:17:11.884Z,16.17
2018-09-28T10:18:11.342Z,16.13
2018-09-28T10:19:11.339Z,15.93
2018-09-28T10:20:11.288Z,15.95
2018-09-28T10:21:11.322Z,16.02
2018-09-28T10:22:11.279Z,16.00
2018-09-28T10:23:11.215Z,15.95
2018-09-28T10:24:11.197Z,15.99
2018-09-28T10:25:11.160Z,15.99
2018-09-28T10:26:11.133Z,15.81
2018-09-28T10:27:11.151Z,15.63
2018-09-28T10:28:11.219Z,15.62
2018-09-28T10:29:11.055Z,15.59
2018-09-28T10:30:11.029Z,15.68
2018-09-28T10:31:11.927Z,15.62
2018-09-28T10:32:10.981Z,15.68
2018-09-28T10:33:10.989Z,15.67
2018-09-28T10:34:10.991Z,15.60
2018-09-28T10:35:10.899Z,15.63
2018-09-28T10:36:10.875Z,15.67
2018-09-28T10:37:10.854Z,15.70
2018-09-28T10:38:10.821Z,15.75
2018-09-28T10:39:10.915Z,15.71
2018-09-28T10:40:10.796Z,15.68
2018-09-28T10:41:10.783Z,15.83
2018-09-28T10:42:10.718Z,15.86
2018-09-28T10:43:10.688Z,15.89
2018-09-28T10:44:11.036Z,15.75
2018-09-28T10:45:10.645Z,15.71
2018-09-28T10:46:10.608Z,15.73
2018-09-28T10:47:10.590Z,15.70
2018-09-28T10:48:10.557Z,15.73
2018-09-28T10:49:10.572Z,15.74
2018-09-28T10:50:10.502Z,15.70
2018-09-28T10:51:10.524Z,15.68
2018-09-28T10:52:10.658Z,15.71
2018-09-28T10:53:10.492Z,15.74
2018-09-28T10:54:10.435Z,15.74
2018-09-28T10:55:10.370Z,15.81
2018-09-28T10:56:10.346Z,15.89
2018-09-28T10:57:10.547Z,15.89
2018-09-28T10:58:11.023Z,15.86
2018-09-28T10:59:10.267Z,15.81
2018-09-28T11:00:10.238Z,15.93
2018-09-28T11:01:10.541Z,15.95
2018-09-28T11:02:10.189Z,15.88
2018-09-28T11:03:10.214Z,15.80
2018-09-28T11:04:10.201Z,15.74
2018-09-28T11:05:10.109Z,15.78
2018-09-28T11:06:10.080Z,15.78
2018-09-28T11:07:10.061Z,15.81
2018-09-28T11:08:10.027Z,15.88
2018-09-28T11:09:10.067Z,15.84
2018-09-28T11:10:09.994Z,15.86
2018-09-28T11:11:09.947Z,15.96
2018-09-28T11:12:09.918Z,15.99
2018-09-28T11:13:09.891Z,16.08
2018-09-28T11:14:09.924Z,16.25
2018-09-28T11:15:09.898Z,16.29
2018-09-28T11:16:09.837Z,16.36
2018-09-28T11:17:09.789Z,16.44
2018-09-28T11:22:44.345Z,16.58
2018-09-28T11:23:44.278Z,16.62
2018-09-28T11:24:44.247Z,16.70
2018-09-28T11:25:44.264Z,16.69
2018-09-28T11:26:44.240Z,16.59
2018-09-28T11:27:44.196Z,16.70
2018-09-28T11:28:44.143Z,16.70
2018-09-28T11:29:44.117Z,16.67
2018-09-28T11:30:44.090Z,16.55
2018-09-28T11:31:44.535Z,16.45
2018-09-28T11:32:44.040Z,16.42
2018-09-28T11:33:44.048Z,16.57
2018-09-28T11:34:43.988Z,16.67
2018-09-28T11:35:44.005Z,16.67
2018-09-28T11:36:43.944Z,16.73
2018-09-28T11:37:43.971Z,16.72
2018-09-28T11:38:43.884Z,16.74
2018-09-28T11:39:43.877Z,16.70
2018-09-28T11:40:43.876Z,16.73
2018-09-28T11:41:43.805Z,16.63
2018-09-28T11:42:43.783Z,16.66
2018-09-28T11:43:43.757Z,16.74
2018-09-28T11:44:43.731Z,16.69
2018-09-28T11:45:44.104Z,16.69
2018-09-28T11:46:44.486Z,16.72
2018-09-28T11:47:44.487Z,16.66
2018-09-28T11:48:43.675Z,16.70
2018-09-28T11:49:43.600Z,16.74
2018-09-28T11:50:44.496Z,16.77
2018-09-28T11:51:43.647Z,16.73
2018-09-28T11:52:43.526Z,16.67
2018-09-28T11:53:43.500Z,16.69
2018-09-28T11:54:43.554Z,16.74
2018-09-28T11:55:43.449Z,16.77
2018-09-28T11:56:43.422Z,16.72
2018-09-28T11:57:43.999Z,16.87
2018-09-28T11:58:43.369Z,17.05
2018-09-28T11:59:43.392Z,17.06
2018-09-28T12:00:43.994Z,17.07
2018-09-28T12:01:43.291Z,17.24
2018-09-28T12:02:43.311Z,17.36
2018-09-28T12:03:43.296Z,17.32
2018-09-28T12:04:43.217Z,17.45
2018-09-28T12:05:43.192Z,17.45
2018-09-28T12:06:43.193Z,17.69
2018-09-28T12:07:43.178Z,17.68
2018-09-28T12:08:43.114Z,17.49
2018-09-28T12:09:43.114Z,17.46
2018-09-28T12:10:43.553Z,17.36
2018-09-28T12:11:43.037Z,17.38
2018-09-28T12:12:43.127Z,17.50
2018-09-28T12:13:43.500Z,17.49
2018-09-28T12:14:42.966Z,17.66
2018-09-28T12:15:43.565Z,17.65
2018-09-28T12:16:42.914Z,17.73
2018-09-28T12:17:42.943Z,17.81
2018-09-28T12:18:42.894Z,17.65
2018-09-28T12:19:42.842Z,17.76
2018-09-28T12:20:45.495Z,17.83
2018-09-28T12:21:42.897Z,17.76
2018-09-28T12:22:43.498Z,17.65
2018-09-28T12:23:42.745Z,17.54
2018-09-28T12:24:43.510Z,17.50
2018-09-28T12:25:42.692Z,17.60
2018-09-28T12:26:42.711Z,17.55
2018-09-28T12:27:42.703Z,17.39
2018-09-28T12:28:42.621Z,17.28
2018-09-28T12:29:42.659Z,17.15
2018-09-28T12:30:43.539Z,16.97
2018-09-28T12:31:42.547Z,17.03
2018-09-28T12:32:43.500Z,16.91
2018-09-28T12:33:42.544Z,16.97
2018-09-28T12:34:42.514Z,16.81
2018-09-28T12:35:42.487Z,16.76
2018-09-28T12:36:42.431Z,16.59
2018-09-28T12:37:42.394Z,16.62
2018-09-28T12:38:42.369Z,16.54
2018-09-28T12:39:42.415Z,16.36
2018-09-28T12:40:42.338Z,16.11
2018-09-28T12:41:42.294Z,16.10
2018-09-28T12:42:42.386Z,16.18
2018-09-28T12:43:42.243Z,16.18
2018-09-28T12:44:42.258Z,16.29
2018-09-28T12:45:42.259Z,16.39
2018-09-28T12:46:42.167Z,16.51
2018-09-28T12:47:42.187Z,16.49
2018-09-28T12:48:43.048Z,16.55
2018-09-28T12:49:43.002Z,16.58
2018-09-28T12:50:42.723Z,16.67
2018-09-28T12:51:42.046Z,16.66
2018-09-28T12:52:42.009Z,16.72
2018-09-28T12:53:42.035Z,16.58
2018-09-28T12:54:42.017Z,16.48
2018-09-28T12:55:41.988Z,16.45
2018-09-28T12:56:41.969Z,16.39